KCKB/CKB METAR and TAF weather

Enter ICAO airport designator
Station Type Date Time Source
KCKB METAR 2022/01/26 13:53 UTC NOAA

KCKB 261353Z 26005KT 3SM -SN OVC021 M09/M12 A3038 RMK AO2 SNB31 SLP302 P0000 T10941122


Station Type Date Time Source
KCKB Decoded METAR 2022/01/26 13:53 UTC NOAA

HARRISON/MARION REGIONAL, WV, United States (KCKB) 39-18N 080-13W 360M
Jan 26, 2022 - 08:53 AM EST / 2022.01.26 1353 UTC
Wind: from the W (260 degrees) at 6 MPH (5 KT):0
Visibility: 3 mile(s):0
Sky conditions: overcast
Weather: light snow
Precipitation last hour: A trace
Temperature: 15.1 F (-9.4 C)
Windchill: 6 F (-14 C):1
Dew Point: 10.0 F (-12.2 C)
Relative Humidity: 80%
Pressure (altimeter): 30.38 in. Hg (1028 hPa)
ob: KCKB 261353Z 26005KT 3SM -SN OVC021 M09/M12 A3038 RMK AO2 SNB31 SLP302 P0000 T10941122
cycle: 14

Station Type Date Time Source
KCKB TAF 2022/01/26 14:54 UTC NOAA

TAF
AMD KCKB 261351Z 2614/2712 VRB03KT P6SM OVC035
TEMPO 2614/2615 3SM -SN BKN020
FM261500 28005KT P6SM BKN029
FM261600 28006KT P6SM BKN035
FM262200 00000KT P6SM FEW180

Example: see airport list